Weather at Grenaa Airport

Public forecast

Using degrees Celsius for public forecast. Weather courtesy of forecast.io.

Closest aviation weather report (METAR) to Grenaa Airport

Closest report is Aarhus Airport, 13.4 nm (24.9 km) SW. Retrieved 2021/01/19 11:20 UTC (0 seconds ago):

EKAH 191120Z AUTO 17006KT 120V250 9999 OVC004/// 03/03 Q0999

Closest aviation forecast (TAF) to Grenaa Airport

Closest forecast is Aarhus Airport, 13.4 nm (24.9 km) SW. Retrieved 2021/01/19 06:30 UTC (5 hours ago):

TAF TAF EKAH 190515Z 1906/2006 18010KT 9999 FEW004 BKN020 TEMPO 1906/1908 3000 -SHRA BR BKN004 SCT020TCU BECMG 1908/1910 4000 BR BKN004 TEMPO 1910/1918 2000 -RADZ BR BKN005 BECMG 1918/1920 0500 FG BKN001 TEMPO 1920/2004 3000 -RADZ BR BKN003 BECMG 2004/2006 5000 -RADZ BKN008